Terminal Aerodrome Forecast
Issued by NWS Omaha/Valley, NE

Home | Current Version | Previous Version | Text Only | Print | Product List | Glossary On
Versions: 1 2 3 4 5 6 7 8 9 10 11 12 13 14 15 16 17 18
000
FTUS43 KOAX 231145
TAFOMA
TAF
KOMA 231145Z 2312/2412 02014KT P6SM OVC008
     FM231800 06016G24KT P6SM OVC015
     FM232300 05018G26KT 4SM -SHRA BR OVC015
     FM240400 36018KT 4SM -RA BR OVC008
     FM241000 36018G26KT 3SM -RASN BR OVC006=

USA.gov is the U.S. government's official web portal to all federal, state and local government web resources and services.